createdAt,value
2023-05-30T00:02:52.892Z,14.74
2023-05-30T00:06:55.125Z,14.72
2023-05-30T00:10:57.812Z,14.65
2023-05-30T00:15:02.472Z,14.54
2023-05-30T00:19:05.666Z,14.45
2023-05-30T00:23:08.044Z,14.36
2023-05-30T00:27:11.967Z,14.17
2023-05-30T00:31:14.170Z,14.17
2023-05-30T00:35:16.510Z,14.08
2023-05-30T00:39:19.213Z,14.07
2023-05-30T00:43:23.037Z,14.02
2023-05-30T00:47:27.183Z,14.02
2023-05-30T00:51:29.666Z,13.99
2023-05-30T00:55:31.813Z,14.01
2023-05-30T00:59:34.792Z,14.02
2023-05-30T01:03:39.010Z,13.95
2023-05-30T01:07:49.176Z,13.99
2023-05-30T01:12:19.774Z,13.94
2023-05-30T01:16:26.553Z,13.86
2023-05-30T01:20:34.785Z,13.75
2023-05-30T01:24:43.374Z,13.66
2023-05-30T01:28:48.028Z,13.73
2023-05-30T01:32:50.737Z,13.70
2023-05-30T01:36:53.059Z,13.65
2023-05-30T01:41:00.790Z,13.71
2023-05-30T01:45:12.270Z,13.70
2023-05-30T01:49:22.940Z,13.73
2023-05-30T01:53:35.167Z,13.72
2023-05-30T01:57:44.284Z,13.69
2023-05-30T02:01:48.698Z,13.55
2023-05-30T02:05:50.924Z,13.50
2023-05-30T02:09:53.177Z,13.41
2023-05-30T02:13:55.350Z,13.36
2023-05-30T02:18:00.615Z,13.33
2023-05-30T02:22:03.393Z,13.38
2023-05-30T02:26:06.228Z,13.33
2023-05-30T02:30:08.779Z,13.34
2023-05-30T02:34:11.334Z,13.27
2023-05-30T02:38:14.042Z,13.21
2023-05-30T02:42:17.074Z,13.25
2023-05-30T02:46:20.392Z,13.19
2023-05-30T02:50:23.783Z,13.14
2023-05-30T02:54:26.223Z,13.02
2023-05-30T02:59:00.610Z,12.95
2023-05-30T03:03:13.100Z,13.03
2023-05-30T03:07:20.185Z,13.04
2023-05-30T03:11:23.181Z,13.06
2023-05-30T03:15:27.953Z,12.98
2023-05-30T03:19:32.238Z,12.98
2023-05-30T03:23:35.917Z,12.81
2023-05-30T03:27:38.547Z,12.98
2023-05-30T03:31:41.820Z,12.98
2023-05-30T03:35:46.297Z,12.85
2023-05-30T03:39:48.658Z,12.88
2023-05-30T03:43:50.937Z,12.92
2023-05-30T03:47:54.397Z,12.81
2023-05-30T03:51:57.040Z,12.77
2023-05-30T03:56:00.137Z,12.84
2023-05-30T04:00:02.940Z,12.92
2023-05-30T04:04:14.819Z,12.97
2023-05-30T04:08:17.316Z,12.94
2023-05-30T04:12:19.473Z,13.01
2023-05-30T04:16:21.919Z,13.09
2023-05-30T04:20:25.284Z,13.16
2023-05-30T04:24:31.050Z,13.22
2023-05-30T04:28:34.222Z,13.49
2023-05-30T04:32:36.334Z,13.57
2023-05-30T04:36:39.596Z,13.74
2023-05-30T04:40:42.696Z,13.69
2023-05-30T04:44:46.297Z,13.72
2023-05-30T04:48:53.461Z,13.78
2023-05-30T04:52:55.891Z,13.81
2023-05-30T04:56:58.877Z,13.89
2023-05-30T05:01:02.523Z,13.99
2023-05-30T05:05:07.456Z,14.05
2023-05-30T05:09:09.835Z,14.19
2023-05-30T05:13:12.011Z,14.14
2023-05-30T05:17:15.031Z,14.20
2023-05-30T05:21:17.588Z,14.29
2023-05-30T05:25:20.065Z,14.41
2023-05-30T05:29:22.596Z,14.54
2023-05-30T05:33:25.006Z,14.67
2023-05-30T05:37:27.188Z,14.86
2023-05-30T05:41:29.304Z,15.04
2023-05-30T05:45:31.625Z,15.14
2023-05-30T05:49:34.296Z,15.40
2023-05-30T05:53:36.529Z,15.40
2023-05-30T05:57:38.753Z,15.62
2023-05-30T06:01:41.146Z,15.77
2023-05-30T06:05:43.483Z,15.90
2023-05-30T06:09:45.774Z,16.07
2023-05-30T06:13:48.314Z,16.13
2023-05-30T06:17:51.367Z,16.24
2023-05-30T06:21:54.061Z,16.33
2023-05-30T06:25:56.587Z,16.59
2023-05-30T06:29:58.843Z,16.91
2023-05-30T06:34:01.698Z,16.95
2023-05-30T06:38:04.155Z,17.23
2023-05-30T06:42:07.291Z,17.30
2023-05-30T06:46:14.076Z,17.44
2023-05-30T06:50:19.445Z,17.64
2023-05-30T06:54:22.154Z,17.76
2023-05-30T06:58:24.765Z,17.82
2023-05-30T07:02:27.219Z,17.94
2023-05-30T07:06:29.449Z,18.04
2023-05-30T07:10:31.722Z,18.27
2023-05-30T07:14:34.204Z,18.21
2023-05-30T07:18:36.897Z,18.38
2023-05-30T07:22:39.648Z,18.51
2023-05-30T07:26:41.752Z,18.60
2023-05-30T07:30:43.839Z,18.88
2023-05-30T07:34:46.164Z,19.08
2023-05-30T07:38:49.158Z,19.13
2023-05-30T07:42:51.732Z,18.98
2023-05-30T07:46:53.860Z,19.29
2023-05-30T07:50:56.289Z,19.63
2023-05-30T07:54:58.848Z,19.86
2023-05-30T07:59:00.947Z,19.87
2023-05-30T08:03:03.036Z,19.85
2023-05-30T08:07:05.688Z,19.93
2023-05-30T08:11:07.877Z,19.99
2023-05-30T08:15:10.656Z,20.07
2023-05-30T08:19:13.408Z,20.17
2023-05-30T08:23:15.467Z,20.24
2023-05-30T08:27:18.696Z,20.37
2023-05-30T08:31:21.227Z,20.45
2023-05-30T08:35:23.326Z,20.41
2023-05-30T08:39:25.510Z,20.54
2023-05-30T08:43:27.747Z,20.49
2023-05-30T08:47:29.955Z,20.58
2023-05-30T08:51:33.633Z,21.00
2023-05-30T08:55:55.706Z,20.80
2023-05-30T08:59:59.155Z,20.91
2023-05-30T09:04:05.916Z,20.97
2023-05-30T09:08:09.424Z,21.19
2023-05-30T09:12:11.744Z,21.41
2023-05-30T09:16:14.238Z,21.12
2023-05-30T09:20:18.539Z,21.58
2023-05-30T09:24:21.249Z,21.72
2023-05-30T09:28:28.055Z,21.76
2023-05-30T09:32:33.127Z,21.38
2023-05-30T09:36:35.281Z,21.33
2023-05-30T09:40:37.524Z,21.36
2023-05-30T09:44:52.935Z,21.67
2023-05-30T09:48:56.271Z,21.15
2023-05-30T09:53:01.030Z,20.90
2023-05-30T09:57:04.022Z,21.46
2023-05-30T10:01:06.103Z,21.68
2023-05-30T10:05:27.659Z,21.48
2023-05-30T10:09:30.005Z,21.57
2023-05-30T10:13:31.975Z,21.62
2023-05-30T10:17:37.461Z,21.63
2023-05-30T10:21:40.234Z,22.05
2023-05-30T10:25:51.984Z,22.02
2023-05-30T10:30:16.541Z,22.17
2023-05-30T10:34:22.507Z,22.30
2023-05-30T10:38:28.544Z,22.57
2023-05-30T10:42:39.669Z,22.44
2023-05-30T10:46:58.434Z,22.47
2023-05-30T10:51:01.638Z,22.26
2023-05-30T10:55:11.621Z,22.12
2023-05-30T11:03:37.066Z,22.39
2023-05-30T11:07:41.533Z,22.35
2023-05-30T11:11:54.837Z,22.18
2023-05-30T11:15:57.055Z,22.41
2023-05-30T11:20:13.749Z,22.22
2023-05-30T11:28:34.657Z,22.22
2023-05-30T11:32:38.449Z,22.66
2023-05-30T11:36:41.077Z,22.73
2023-05-30T11:40:44.183Z,22.86
2023-05-30T11:44:46.698Z,22.64
2023-05-30T11:48:48.942Z,22.39
2023-05-30T11:52:51.132Z,22.59
2023-05-30T11:56:53.692Z,22.30
2023-05-30T12:00:56.012Z,22.68
2023-05-30T12:05:05.306Z,22.67
2023-05-30T12:09:07.398Z,22.76
2023-05-30T12:13:09.976Z,23.19
2023-05-30T12:17:17.556Z,22.92
2023-05-30T12:21:20.277Z,22.97
2023-05-30T12:25:30.148Z,22.75
2023-05-30T12:29:35.881Z,23.12
2023-05-30T12:33:37.936Z,23.09
2023-05-30T12:37:40.509Z,23.28
2023-05-30T12:41:42.608Z,23.19
2023-05-30T12:45:47.729Z,23.38
2023-05-30T12:49:50.197Z,23.55
2023-05-30T12:53:54.486Z,23.34
2023-05-30T12:57:58.901Z,23.30
2023-05-30T13:02:01.333Z,23.62
2023-05-30T13:06:04.030Z,23.61
2023-05-30T13:10:07.035Z,23.77
2023-05-30T13:14:09.197Z,23.61
2023-05-30T13:18:11.551Z,23.22
2023-05-30T13:22:13.827Z,22.98
2023-05-30T13:26:16.122Z,23.16
2023-05-30T13:30:18.380Z,23.10
2023-05-30T13:34:21.801Z,23.24
2023-05-30T13:38:23.955Z,23.19
2023-05-30T13:42:26.765Z,23.45
2023-05-30T13:46:28.825Z,23.29
2023-05-30T13:50:31.434Z,23.33
2023-05-30T13:54:33.516Z,23.10
2023-05-30T13:58:35.957Z,22.99
2023-05-30T14:02:38.882Z,23.45
2023-05-30T14:06:41.275Z,23.10
2023-05-30T14:10:45.763Z,23.32
2023-05-30T14:14:48.827Z,23.14
2023-05-30T14:18:50.858Z,22.90
2023-05-30T14:22:52.925Z,22.99
2023-05-30T14:26:55.000Z,22.99
2023-05-30T14:30:57.040Z,23.11
2023-05-30T14:34:59.132Z,22.98
2023-05-30T14:39:01.247Z,22.92
2023-05-30T14:43:03.452Z,22.83
2023-05-30T14:47:05.647Z,23.05
2023-05-30T14:51:08.939Z,23.01
2023-05-30T14:55:11.201Z,22.92
2023-05-30T14:59:13.187Z,22.61
2023-05-30T15:03:16.692Z,22.53
2023-05-30T15:07:19.036Z,22.51
2023-05-30T15:11:23.165Z,22.31
2023-05-30T15:15:25.396Z,22.38
2023-05-30T15:19:27.543Z,22.97
2023-05-30T15:23:29.601Z,23.08
2023-05-30T15:27:31.771Z,23.12
2023-05-30T15:31:33.869Z,23.05
2023-05-30T15:35:36.072Z,22.49
2023-05-30T15:39:38.615Z,22.27
2023-05-30T15:43:40.886Z,22.06
2023-05-30T15:47:43.042Z,22.01
2023-05-30T15:51:45.496Z,21.94
2023-05-30T15:55:47.652Z,21.71
2023-05-30T15:59:49.779Z,21.55
2023-05-30T16:03:55.530Z,21.59
2023-05-30T16:07:59.858Z,21.39
2023-05-30T16:12:02.674Z,21.42
2023-05-30T16:16:05.757Z,21.27
2023-05-30T16:20:08.596Z,21.16
2023-05-30T16:24:10.725Z,21.01
2023-05-30T16:28:13.411Z,20.93
2023-05-30T16:32:15.650Z,20.83
2023-05-30T16:36:20.179Z,20.77
2023-05-30T16:40:22.294Z,20.69
2023-05-30T16:44:25.752Z,20.70
2023-05-30T16:48:27.757Z,20.61
2023-05-30T16:52:29.944Z,20.45
2023-05-30T16:56:32.137Z,20.34
2023-05-30T17:00:34.300Z,20.31
2023-05-30T17:04:36.601Z,20.30
2023-05-30T17:08:39.542Z,20.12
2023-05-30T17:12:41.877Z,20.03
2023-05-30T17:16:44.081Z,19.94
2023-05-30T17:20:47.225Z,19.83
2023-05-30T17:24:49.395Z,19.73
2023-05-30T17:28:52.930Z,19.69
2023-05-30T17:32:55.139Z,19.58
2023-05-30T17:36:57.504Z,19.52
2023-05-30T17:40:59.739Z,19.48
2023-05-30T17:45:03.087Z,19.46
2023-05-30T17:49:05.376Z,19.33
2023-05-30T17:53:07.599Z,19.24
2023-05-30T17:57:10.279Z,19.17
2023-05-30T18:01:12.627Z,19.08
2023-05-30T18:05:17.036Z,18.95
2023-05-30T18:09:19.825Z,18.83
2023-05-30T18:13:22.411Z,18.65
2023-05-30T18:17:24.669Z,18.52
2023-05-30T18:21:27.763Z,18.38
2023-05-30T18:25:30.126Z,18.26
2023-05-30T18:29:36.098Z,18.09
2023-05-30T18:33:38.193Z,17.81
2023-05-30T18:37:40.576Z,17.69
2023-05-30T18:41:43.752Z,17.65
2023-05-30T18:45:46.380Z,17.59
2023-05-30T18:49:49.291Z,17.54
2023-05-30T18:53:51.673Z,17.41
2023-05-30T18:57:54.922Z,17.30
2023-05-30T19:01:58.235Z,17.17
2023-05-30T19:06:00.727Z,17.00
2023-05-30T19:10:03.135Z,16.78
2023-05-30T19:14:05.388Z,16.57
2023-05-30T19:18:07.901Z,16.54
2023-05-30T19:22:10.048Z,16.61
2023-05-30T19:26:12.486Z,16.69
2023-05-30T19:30:15.335Z,16.68
2023-05-30T19:34:17.676Z,16.67
2023-05-30T19:38:20.388Z,16.56
2023-05-30T19:42:22.557Z,16.46
2023-05-30T19:46:29.289Z,16.23
2023-05-30T19:50:31.367Z,15.97
2023-05-30T19:54:33.743Z,15.75
2023-05-30T19:58:36.236Z,15.49
2023-05-30T20:02:40.078Z,15.34
2023-05-30T20:06:41.954Z,15.11
2023-05-30T20:10:44.070Z,14.92
2023-05-30T20:14:46.187Z,14.65
2023-05-30T20:18:51.521Z,14.52
2023-05-30T20:22:54.010Z,14.40
2023-05-30T20:26:56.606Z,14.42
2023-05-30T20:31:00.111Z,14.35
2023-05-30T20:35:03.124Z,14.17
2023-05-30T20:39:06.117Z,14.19
2023-05-30T20:43:08.295Z,14.15
2023-05-30T20:47:11.599Z,14.13
2023-05-30T20:51:13.988Z,14.08
2023-05-30T20:55:15.960Z,14.05
2023-05-30T20:59:18.239Z,14.03
2023-05-30T21:03:20.480Z,13.96
2023-05-30T21:07:23.305Z,13.91
2023-05-30T21:11:25.595Z,13.85
2023-05-30T21:15:28.082Z,13.69
2023-05-30T21:19:30.460Z,13.74
2023-05-30T21:23:32.934Z,13.67
2023-05-30T21:27:35.519Z,13.65
2023-05-30T21:31:38.352Z,13.70
2023-05-30T21:35:40.672Z,13.67
2023-05-30T21:39:43.279Z,13.57
2023-05-30T21:43:46.475Z,13.46
2023-05-30T21:47:48.862Z,13.37
2023-05-30T21:51:51.037Z,13.27
2023-05-30T21:55:53.646Z,13.13
2023-05-30T21:59:56.235Z,13.02
2023-05-30T22:03:58.689Z,12.97
2023-05-30T22:08:00.878Z,12.87
2023-05-30T22:12:03.866Z,12.91
2023-05-30T22:16:06.613Z,12.94
2023-05-30T22:20:09.618Z,12.87
2023-05-30T22:24:12.042Z,12.84
2023-05-30T22:28:14.608Z,12.79
2023-05-30T22:32:16.818Z,12.70
2023-05-30T22:36:19.382Z,12.59
2023-05-30T22:40:21.859Z,12.59
2023-05-30T22:44:24.547Z,12.49
2023-05-30T22:48:26.730Z,12.43
2023-05-30T22:52:29.112Z,12.19
2023-05-30T22:56:31.391Z,12.11
2023-05-30T23:00:33.867Z,11.88
2023-05-30T23:04:37.424Z,11.73
2023-05-30T23:08:39.668Z,11.61
2023-05-30T23:12:42.036Z,11.42
2023-05-30T23:16:44.327Z,11.27
2023-05-30T23:20:46.809Z,11.08
2023-05-30T23:24:49.360Z,10.90
2023-05-30T23:28:51.600Z,10.71
2023-05-30T23:32:54.018Z,10.58
2023-05-30T23:36:56.238Z,10.37
2023-05-30T23:40:58.791Z,10.31
2023-05-30T23:45:01.170Z,10.24
2023-05-30T23:49:03.494Z,10.15
2023-05-30T23:53:05.856Z,10.11
2023-05-30T23:57:08.765Z,10.09
